Terminal Aerodrome Forecast
Issued by NWS Cleveland, OH

Home | Current Version | Previous Version | Graphics & Text | Print | Product List | Glossary On
Versions: 1 2 3 4 5 6 7 8 9 10 11 12 13 14 15 16 17 18 19
391
FTUS41 KCLE 220311 AAA
TAFMFD
TAF AMD
KMFD 220311Z 2203/2224 03008KT 6SM -RASN OVC035
      TEMPO 2204/2206 5SM -SNPL OVC020
     FM220600 03010KT 3SM -SN OVC012
      TEMPO 2207/2211 3SM -FZRAPLSN OVC012
     FM221200 04010KT 5SM -RA OVC012
     FM221800 06010KT P6SM OVC020=

USA.gov is the U.S. government's official web portal to all federal, state and local government web resources and services.